createdAt,value
2022-10-26T00:01:25.369Z,4.30
2022-10-26T00:03:26.917Z,3.15
2022-10-26T00:05:28.460Z,3.47
2022-10-26T00:07:30.548Z,2.45
2022-10-26T00:09:32.217Z,2.90
2022-10-26T00:11:33.890Z,2.47
2022-10-26T00:13:35.949Z,4.05
2022-10-26T00:15:40.075Z,2.10
2022-10-26T00:17:41.811Z,2.45
2022-10-26T00:19:43.274Z,2.67
2022-10-26T00:21:44.919Z,2.70
2022-10-26T00:23:46.380Z,2.17
2022-10-26T00:25:54.379Z,2.78
2022-10-26T00:27:55.892Z,4.38
2022-10-26T00:29:57.311Z,2.30
2022-10-26T00:31:58.757Z,2.47
2022-10-26T00:34:00.402Z,2.53
2022-10-26T00:36:01.883Z,2.22
2022-10-26T00:38:03.306Z,3.92
2022-10-26T00:40:04.945Z,2.08
2022-10-26T00:42:06.422Z,2.20
2022-10-26T00:44:27.161Z,2.38
2022-10-26T00:46:36.460Z,2.17
2022-10-26T00:48:39.857Z,2.25
2022-10-26T00:50:43.291Z,2.40
2022-10-26T00:52:44.750Z,3.05
2022-10-26T00:54:46.366Z,2.90
2022-10-26T00:56:50.892Z,2.40
2022-10-26T00:58:52.528Z,2.83
2022-10-26T01:00:54.711Z,3.05
2022-10-26T01:02:57.950Z,3.22
2022-10-26T01:04:59.582Z,2.30
2022-10-26T01:07:02.658Z,2.03
2022-10-26T01:09:04.259Z,2.43
2022-10-26T01:11:05.809Z,3.10
2022-10-26T01:13:07.609Z,3.28
2022-10-26T01:15:09.360Z,2.65
2022-10-26T01:17:16.948Z,2.13
2022-10-26T01:19:37.223Z,1.73
2022-10-26T01:21:38.749Z,3.17
2022-10-26T01:23:46.520Z,2.47
2022-10-26T01:25:56.219Z,2.30
2022-10-26T01:27:58.362Z,2.67
2022-10-26T01:30:11.853Z,2.28
2022-10-26T01:32:22.703Z,2.15
2022-10-26T01:34:29.303Z,2.50
2022-10-26T01:36:42.557Z,1.40
2022-10-26T01:38:47.434Z,2.33
2022-10-26T01:41:08.817Z,1.38
2022-10-26T01:43:12.415Z,259.13
2022-10-26T01:45:14.901Z,246.80
2022-10-26T01:47:17.217Z,248.65
2022-10-26T01:49:21.723Z,359.98
2022-10-26T01:51:23.702Z,289.83
2022-10-26T01:53:26.566Z,2.22
2022-10-26T01:55:39.911Z,2.35
2022-10-26T01:57:43.591Z,2.47
2022-10-26T02:02:14.912Z,2.35
2022-10-26T02:06:32.799Z,2.55
2022-10-26T02:08:43.718Z,2.28
2022-10-26T02:11:07.440Z,2.50
2022-10-26T02:13:09.382Z,2.42
2022-10-26T02:15:19.528Z,2.63
2022-10-26T02:17:21.272Z,3.08
2022-10-26T02:19:40.534Z,2.55
2022-10-26T02:21:47.681Z,2.50
2022-10-26T02:23:51.942Z,3.13
2022-10-26T02:25:57.076Z,3.40
2022-10-26T02:28:04.759Z,2.58
2022-10-26T02:30:06.882Z,3.20
2022-10-26T02:32:09.126Z,4.22
2022-10-26T02:34:11.935Z,3.78
2022-10-26T02:36:15.521Z,2.70
2022-10-26T02:38:19.462Z,4.63
2022-10-26T02:40:24.731Z,3.50
2022-10-26T02:42:26.963Z,4.18
2022-10-26T02:44:30.219Z,2.95
2022-10-26T02:46:33.862Z,3.17
2022-10-26T02:50:47.573Z,2.90
2022-10-26T02:53:00.797Z,3.03
2022-10-26T02:55:14.778Z,3.28
2022-10-26T02:57:17.805Z,2.75
2022-10-26T02:59:22.938Z,3.20
2022-10-26T03:01:24.989Z,3.40
2022-10-26T03:03:27.619Z,2.92
2022-10-26T03:05:30.468Z,4.30
2022-10-26T03:07:31.898Z,2.95
2022-10-26T03:09:33.348Z,4.70
2022-10-26T03:11:34.823Z,3.30
2022-10-26T03:13:36.254Z,3.03
2022-10-26T03:15:37.983Z,2.95
2022-10-26T03:17:39.601Z,3.03
2022-10-26T03:19:40.981Z,2.97
2022-10-26T03:21:42.550Z,3.55
2022-10-26T03:23:43.995Z,4.50
2022-10-26T03:25:45.456Z,3.35
2022-10-26T03:27:47.101Z,3.08
2022-10-26T03:29:49.054Z,3.72
2022-10-26T03:31:54.243Z,3.53
2022-10-26T03:33:55.751Z,3.17
2022-10-26T03:35:57.270Z,3.13
2022-10-26T03:37:58.765Z,2.95
2022-10-26T03:40:00.200Z,3.42
2022-10-26T03:42:01.687Z,2.55
2022-10-26T03:44:03.109Z,3.22
2022-10-26T03:46:04.750Z,2.65
2022-10-26T03:48:06.168Z,3.15
2022-10-26T03:50:07.852Z,2.22
2022-10-26T03:52:09.262Z,2.42
2022-10-26T03:54:10.674Z,2.33
2022-10-26T03:56:12.130Z,2.25
2022-10-26T03:58:13.794Z,3.95
2022-10-26T04:00:16.492Z,2.95
2022-10-26T04:02:17.893Z,3.55
2022-10-26T04:04:19.570Z,4.53
2022-10-26T04:06:21.046Z,2.13
2022-10-26T04:08:22.447Z,2.80
2022-10-26T04:10:25.028Z,2.00
2022-10-26T04:12:26.428Z,2.75
2022-10-26T04:14:27.814Z,2.65
2022-10-26T04:16:32.500Z,2.47
2022-10-26T04:18:34.971Z,2.13
2022-10-26T04:20:36.760Z,3.15
2022-10-26T04:22:38.503Z,2.63
2022-10-26T04:24:39.986Z,2.90
2022-10-26T04:26:41.430Z,3.42
2022-10-26T04:28:42.878Z,2.45
2022-10-26T04:30:44.289Z,3.47
2022-10-26T04:32:45.911Z,2.67
2022-10-26T04:34:47.772Z,4.82
2022-10-26T04:36:49.302Z,3.22
2022-10-26T04:38:51.235Z,2.30
2022-10-26T04:40:52.887Z,3.13
2022-10-26T04:42:54.581Z,3.95
2022-10-26T04:44:55.961Z,3.75
2022-10-26T04:46:57.379Z,3.22
2022-10-26T04:48:58.767Z,3.30
2022-10-26T04:51:00.657Z,3.75
2022-10-26T04:53:02.274Z,4.03
2022-10-26T04:55:06.108Z,3.85
2022-10-26T04:57:07.550Z,3.72
2022-10-26T04:59:09.091Z,3.20
2022-10-26T05:01:10.586Z,2.78
2022-10-26T05:03:13.085Z,2.95
2022-10-26T05:05:15.307Z,3.70
2022-10-26T05:07:18.025Z,4.35
2022-10-26T05:09:19.908Z,2.70
2022-10-26T05:11:22.488Z,3.55
2022-10-26T05:15:29.196Z,2.88
2022-10-26T05:17:30.570Z,2.45
2022-10-26T05:19:33.697Z,3.70
2022-10-26T05:21:37.640Z,2.70
2022-10-26T05:23:41.403Z,2.40
2022-10-26T05:25:43.123Z,4.30
2022-10-26T05:27:44.561Z,2.47
2022-10-26T05:29:47.872Z,3.78
2022-10-26T05:31:49.678Z,3.08
2022-10-26T05:33:53.414Z,2.30
2022-10-26T05:35:55.551Z,3.28
2022-10-26T05:37:57.039Z,3.90
2022-10-26T05:39:58.478Z,2.40
2022-10-26T05:42:01.997Z,2.65
2022-10-26T05:44:03.797Z,2.70
2022-10-26T05:46:05.461Z,3.20
2022-10-26T05:48:06.886Z,3.25
2022-10-26T05:50:10.804Z,2.38
2022-10-26T05:52:12.711Z,2.45
2022-10-26T05:54:14.208Z,4.25
2022-10-26T05:56:20.348Z,2.22
2022-10-26T05:58:21.932Z,2.33
2022-10-26T06:00:28.457Z,3.08
2022-10-26T06:02:42.701Z,3.80
2022-10-26T06:04:48.769Z,3.40
2022-10-26T06:06:53.353Z,2.72
2022-10-26T06:08:55.003Z,2.30
2022-10-26T06:10:59.289Z,2.78
2022-10-26T06:13:00.857Z,2.90
2022-10-26T06:15:02.450Z,3.30
2022-10-26T06:17:22.094Z,2.90
2022-10-26T06:19:23.577Z,2.75
2022-10-26T06:21:42.074Z,2.75
2022-10-26T06:23:52.709Z,2.75
2022-10-26T06:25:58.153Z,3.50
2022-10-26T06:28:18.528Z,3.10
2022-10-26T06:30:23.246Z,3.20
2022-10-26T06:32:27.621Z,4.50
2022-10-26T06:34:32.579Z,2.88
2022-10-26T06:36:34.221Z,5.13
2022-10-26T06:38:37.176Z,2.65
2022-10-26T06:40:40.136Z,3.58
2022-10-26T06:42:41.825Z,3.15
2022-10-26T06:44:43.463Z,5.40
2022-10-26T06:47:03.280Z,3.85
2022-10-26T06:49:10.853Z,4.05
2022-10-26T06:51:14.473Z,4.05
2022-10-26T06:53:23.424Z,4.88
2022-10-26T06:55:26.901Z,2.80
2022-10-26T06:57:32.200Z,3.53
2022-10-26T06:59:43.043Z,3.63
2022-10-26T07:01:44.604Z,3.53
2022-10-26T07:03:46.137Z,3.13
2022-10-26T07:05:47.768Z,4.00
2022-10-26T07:07:49.681Z,5.32
2022-10-26T07:09:51.599Z,3.72
2022-10-26T07:11:53.330Z,3.60
2022-10-26T07:13:54.789Z,4.18
2022-10-26T07:15:56.222Z,3.55
2022-10-26T07:17:57.633Z,3.78
2022-10-26T07:19:59.177Z,3.47
2022-10-26T07:22:01.248Z,4.30
2022-10-26T07:24:02.674Z,3.67
2022-10-26T07:26:04.328Z,5.80
2022-10-26T07:28:06.493Z,3.38
2022-10-26T07:30:08.365Z,3.42
2022-10-26T07:32:09.761Z,3.53
2022-10-26T07:34:11.279Z,3.78
2022-10-26T07:36:13.854Z,4.43
2022-10-26T07:38:15.258Z,5.05
2022-10-26T07:40:16.669Z,3.83
2022-10-26T07:42:18.843Z,3.70
2022-10-26T07:44:20.355Z,3.70
2022-10-26T07:46:21.906Z,2.47
2022-10-26T07:48:23.415Z,3.17
2022-10-26T07:50:25.174Z,3.13
2022-10-26T07:52:26.530Z,1.80
2022-10-26T07:54:28.058Z,2.63
2022-10-26T07:56:30.015Z,1.70
2022-10-26T07:58:31.539Z,1.88
2022-10-26T08:00:33.112Z,1.63
2022-10-26T08:02:35.059Z,3.40
2022-10-26T08:04:37.799Z,2.95
2022-10-26T08:06:39.827Z,1.88
2022-10-26T08:08:46.399Z,2.05
2022-10-26T08:10:52.335Z,3.03
2022-10-26T08:12:55.148Z,2.40
2022-10-26T08:14:56.858Z,3.30
2022-10-26T08:16:58.251Z,4.60
2022-10-26T08:18:59.742Z,3.67
2022-10-26T08:21:10.671Z,3.78
2022-10-26T08:23:14.180Z,3.75
2022-10-26T08:25:17.699Z,4.25
2022-10-26T08:27:21.952Z,2.60
2022-10-26T08:29:25.963Z,2.00
2022-10-26T08:31:29.566Z,2.38
2022-10-26T08:33:31.098Z,2.40
2022-10-26T08:35:35.314Z,1.88
2022-10-26T08:37:37.695Z,3.17
2022-10-26T08:39:39.986Z,1.75
2022-10-26T08:41:43.442Z,1.55
2022-10-26T08:43:52.554Z,2.22
2022-10-26T08:45:53.930Z,1.17
2022-10-26T08:48:00.126Z,1.38
2022-10-26T08:50:04.835Z,2.90
2022-10-26T08:52:09.783Z,1.60
2022-10-26T08:54:22.735Z,1.10
2022-10-26T08:56:27.331Z,2.40
2022-10-26T08:58:33.593Z,1.23
2022-10-26T09:00:37.166Z,2.67
2022-10-26T09:04:40.979Z,2.88
2022-10-26T09:07:07.266Z,4.93
2022-10-26T09:09:09.395Z,4.03
2022-10-26T09:11:31.142Z,4.47
2022-10-26T09:13:44.282Z,4.70
2022-10-26T09:15:54.994Z,7.25
2022-10-26T09:17:56.418Z,4.57
2022-10-26T09:20:11.063Z,4.07
2022-10-26T09:22:17.940Z,3.15
2022-10-26T09:24:29.607Z,4.57
2022-10-26T09:26:49.900Z,4.20
2022-10-26T09:28:51.436Z,4.30
2022-10-26T09:30:52.805Z,4.15
2022-10-26T09:32:57.533Z,4.30
2022-10-26T09:35:00.439Z,5.10
2022-10-26T09:37:10.894Z,4.82
2022-10-26T09:39:21.110Z,5.00
2022-10-26T09:41:22.585Z,6.22
2022-10-26T09:43:27.089Z,6.85
2022-10-26T09:45:38.897Z,6.15
2022-10-26T09:47:42.973Z,5.10
2022-10-26T09:49:49.497Z,4.45
2022-10-26T09:51:51.351Z,4.97
2022-10-26T09:53:53.989Z,4.25
2022-10-26T09:56:06.314Z,5.68
2022-10-26T09:58:13.078Z,4.82
2022-10-26T10:00:18.627Z,4.10
2022-10-26T10:02:33.910Z,5.53
2022-10-26T10:04:35.786Z,4.07
2022-10-26T10:06:37.190Z,4.70
2022-10-26T10:08:38.609Z,5.43
2022-10-26T10:10:53.057Z,4.05
2022-10-26T10:12:54.774Z,5.38
2022-10-26T10:14:59.521Z,5.20
2022-10-26T10:17:02.432Z,4.57
2022-10-26T10:19:03.859Z,4.07
2022-10-26T10:21:06.176Z,5.78
2022-10-26T10:23:21.301Z,5.78
2022-10-26T10:25:31.674Z,4.82
2022-10-26T10:27:33.521Z,5.13
2022-10-26T10:29:40.889Z,5.22
2022-10-26T10:31:42.514Z,5.55
2022-10-26T10:33:45.686Z,5.82
2022-10-26T10:35:50.067Z,4.82
2022-10-26T10:37:51.701Z,4.30
2022-10-26T10:39:59.242Z,4.38
2022-10-26T10:42:01.152Z,6.20
2022-10-26T10:44:07.152Z,4.50
2022-10-26T10:46:08.871Z,5.05
2022-10-26T10:48:14.470Z,4.72
2022-10-26T10:50:17.596Z,5.72
2022-10-26T10:52:24.094Z,6.20
2022-10-26T10:54:37.509Z,5.25
2022-10-26T10:56:44.388Z,4.73
2022-10-26T10:58:48.624Z,5.25
2022-10-26T11:00:50.086Z,6.00
2022-10-26T11:03:09.849Z,6.45
2022-10-26T11:05:11.217Z,4.70
2022-10-26T11:07:14.409Z,3.95
2022-10-26T11:09:20.095Z,5.97
2022-10-26T11:11:24.960Z,5.50
2022-10-26T11:13:46.347Z,4.72
2022-10-26T11:15:52.144Z,4.93
2022-10-26T11:18:13.598Z,5.35
2022-10-26T11:20:24.688Z,4.85
2022-10-26T11:22:29.137Z,5.55
2022-10-26T11:24:34.150Z,5.60
2022-10-26T11:26:43.654Z,5.32
2022-10-26T11:28:50.674Z,4.43
2022-10-26T11:33:05.626Z,4.90
2022-10-26T11:35:14.692Z,5.35
2022-10-26T11:37:26.863Z,5.00
2022-10-26T11:39:36.677Z,4.95
2022-10-26T11:41:48.407Z,4.28
2022-10-26T11:43:51.129Z,6.75
2022-10-26T11:46:12.777Z,4.88
2022-10-26T11:48:19.475Z,4.95
2022-10-26T11:50:21.876Z,5.20
2022-10-26T11:52:35.857Z,5.70
2022-10-26T11:54:40.846Z,4.83
2022-10-26T11:56:46.515Z,4.75
2022-10-26T11:58:48.309Z,4.25
2022-10-26T12:00:54.142Z,5.68
2022-10-26T12:02:57.827Z,5.25
2022-10-26T12:05:08.245Z,5.93
2022-10-26T12:07:13.330Z,5.45
2022-10-26T12:09:24.765Z,4.25
2022-10-26T12:12:05.991Z,7.07
2022-10-26T12:14:07.871Z,5.57
2022-10-26T12:16:13.974Z,5.55
2022-10-26T12:18:54.610Z,6.32
2022-10-26T12:21:04.337Z,7.32
2022-10-26T12:23:06.539Z,4.07
2022-10-26T12:25:15.442Z,5.45
2022-10-26T12:27:36.029Z,4.55
2022-10-26T12:29:45.674Z,5.82
2022-10-26T12:31:47.134Z,4.40
2022-10-26T12:33:49.582Z,4.65
2022-10-26T12:35:51.055Z,5.45
2022-10-26T12:37:52.828Z,5.03
2022-10-26T12:39:54.872Z,4.93
2022-10-26T12:41:58.202Z,6.00
2022-10-26T12:44:06.187Z,5.05
2022-10-26T12:46:13.763Z,5.55
2022-10-26T12:48:39.731Z,6.13
2022-10-26T12:50:41.406Z,4.53
2022-10-26T12:52:48.768Z,5.25
2022-10-26T12:55:01.523Z,7.13
2022-10-26T12:57:29.506Z,4.35
2022-10-26T12:59:44.735Z,4.47
2022-10-26T13:01:58.637Z,5.28
2022-10-26T13:04:06.576Z,4.43
2022-10-26T13:06:20.339Z,4.07
2022-10-26T13:08:22.126Z,4.63
2022-10-26T13:10:25.565Z,5.40
2022-10-26T13:12:27.656Z,4.95
2022-10-26T13:14:32.117Z,5.60
2022-10-26T13:16:34.000Z,4.35
2022-10-26T13:18:41.277Z,4.63
2022-10-26T13:21:01.687Z,5.60
2022-10-26T13:23:04.261Z,5.15
2022-10-26T13:25:06.259Z,4.82
2022-10-26T13:27:08.149Z,5.82
2022-10-26T13:29:10.602Z,5.65
2022-10-26T13:31:15.111Z,4.15
2022-10-26T13:33:19.018Z,4.57
2022-10-26T13:37:24.257Z,4.18
2022-10-26T13:39:42.724Z,5.53
2022-10-26T13:41:45.385Z,4.82
2022-10-26T13:43:47.070Z,4.97
2022-10-26T13:45:56.206Z,4.38
2022-10-26T13:47:57.758Z,4.63
2022-10-26T13:50:08.475Z,4.32
2022-10-26T13:52:24.016Z,5.28
2022-10-26T13:54:44.152Z,5.13
2022-10-26T13:56:57.119Z,4.80
2022-10-26T13:59:01.955Z,5.28
2022-10-26T14:01:09.990Z,5.07
2022-10-26T14:03:18.282Z,4.13
2022-10-26T14:05:19.705Z,6.38
2022-10-26T14:07:24.231Z,5.25
2022-10-26T14:09:25.946Z,4.57
2022-10-26T14:11:32.686Z,4.03
2022-10-26T14:13:34.432Z,4.15
2022-10-26T14:15:37.111Z,4.03
2022-10-26T14:17:39.339Z,5.00
2022-10-26T14:19:51.094Z,5.82
2022-10-26T14:21:59.412Z,4.75
2022-10-26T14:24:07.990Z,4.03
2022-10-26T14:26:20.407Z,4.00
2022-10-26T14:28:24.075Z,4.38
2022-10-26T14:30:25.923Z,4.68
2022-10-26T14:32:28.919Z,5.90
2022-10-26T14:34:33.103Z,5.50
2022-10-26T14:36:39.253Z,4.80
2022-10-26T14:38:47.295Z,3.55
2022-10-26T14:40:49.652Z,4.95
2022-10-26T14:42:52.986Z,5.50
2022-10-26T14:44:57.173Z,3.65
2022-10-26T14:46:59.217Z,5.72
2022-10-26T14:49:02.128Z,4.57
2022-10-26T14:51:06.703Z,5.68
2022-10-26T14:53:16.483Z,4.70
2022-10-26T14:55:20.523Z,5.53
2022-10-26T14:57:49.230Z,4.20
2022-10-26T15:00:01.134Z,5.60
2022-10-26T15:02:21.540Z,5.22
2022-10-26T15:04:27.978Z,4.72
2022-10-26T15:06:30.579Z,4.20
2022-10-26T15:08:55.917Z,5.40
2022-10-26T15:11:07.963Z,4.80
2022-10-26T15:13:09.867Z,5.10
2022-10-26T15:15:16.396Z,4.53
2022-10-26T15:17:21.062Z,4.32
2022-10-26T15:19:24.204Z,7.25
2022-10-26T15:21:35.687Z,4.18
2022-10-26T15:23:38.705Z,5.35
2022-10-26T15:25:41.727Z,4.30
2022-10-26T15:27:43.990Z,4.60
2022-10-26T15:29:46.591Z,4.18
2022-10-26T15:31:59.640Z,4.73
2022-10-26T15:34:01.910Z,4.00
2022-10-26T15:36:17.019Z,4.72
2022-10-26T15:38:18.542Z,4.40
2022-10-26T15:40:20.875Z,6.07
2022-10-26T15:42:22.347Z,5.55
2022-10-26T15:44:23.889Z,4.82
2022-10-26T15:46:29.172Z,4.97
2022-10-26T15:48:31.689Z,4.50
2022-10-26T15:50:35.568Z,4.70
2022-10-26T15:52:39.387Z,3.95
2022-10-26T15:54:40.899Z,4.18
2022-10-26T15:56:43.836Z,4.15
2022-10-26T15:58:45.912Z,4.13
2022-10-26T16:00:47.374Z,5.22
2022-10-26T16:02:48.992Z,5.75
2022-10-26T16:04:50.388Z,5.13
2022-10-26T16:06:51.870Z,4.28
2022-10-26T16:08:53.963Z,4.10
2022-10-26T16:10:55.453Z,5.18
2022-10-26T16:12:56.907Z,6.35
2022-10-26T16:15:05.602Z,5.07
2022-10-26T16:17:07.838Z,4.88
2022-10-26T16:21:31.193Z,5.00
2022-10-26T16:23:32.655Z,4.32
2022-10-26T16:25:35.493Z,4.65
2022-10-26T16:27:37.024Z,4.50
2022-10-26T16:29:38.726Z,5.30
2022-10-26T16:31:40.238Z,4.93
2022-10-26T16:33:41.781Z,5.15
2022-10-26T16:35:43.503Z,4.53
2022-10-26T16:37:45.561Z,5.07
2022-10-26T16:39:46.997Z,4.55
2022-10-26T16:41:49.548Z,4.78
2022-10-26T16:43:51.474Z,4.75
2022-10-26T16:45:52.872Z,4.93
2022-10-26T16:47:54.402Z,4.03
2022-10-26T16:49:55.791Z,3.90
2022-10-26T16:51:57.652Z,5.35
2022-10-26T16:53:59.121Z,4.53
2022-10-26T16:56:08.452Z,5.95
2022-10-26T16:58:10.168Z,4.38
2022-10-26T17:00:12.100Z,4.40
2022-10-26T17:02:13.981Z,4.82
2022-10-26T17:04:16.036Z,4.95
2022-10-26T17:06:17.757Z,5.70
2022-10-26T17:08:19.227Z,5.97
2022-10-26T17:10:23.199Z,5.55
2022-10-26T17:14:32.707Z,6.22
2022-10-26T17:16:34.999Z,5.72
2022-10-26T17:18:36.425Z,4.18
2022-10-26T17:20:38.584Z,5.38
2022-10-26T17:22:40.491Z,5.40
2022-10-26T17:24:41.886Z,4.93
2022-10-26T17:26:44.923Z,5.60
2022-10-26T17:28:52.432Z,4.63
2022-10-26T17:31:05.440Z,4.78
2022-10-26T17:33:09.446Z,4.95
2022-10-26T17:37:13.312Z,6.80
2022-10-26T17:39:16.289Z,5.28
2022-10-26T17:41:19.661Z,4.03
2022-10-26T17:43:21.522Z,5.15
2022-10-26T17:45:23.346Z,4.88
2022-10-26T17:47:24.811Z,5.50
2022-10-26T17:49:27.963Z,5.18
2022-10-26T17:51:32.821Z,5.72
2022-10-26T17:53:35.370Z,5.38
2022-10-26T17:55:41.347Z,4.90
2022-10-26T17:57:43.303Z,4.90
2022-10-26T17:59:46.509Z,5.60
2022-10-26T18:01:48.353Z,4.78
2022-10-26T18:03:49.877Z,4.90
2022-10-26T18:05:51.529Z,6.63
2022-10-26T18:07:53.180Z,4.75
2022-10-26T18:09:54.877Z,5.05
2022-10-26T18:11:56.616Z,6.13
2022-10-26T18:13:59.589Z,6.50
2022-10-26T18:16:10.175Z,5.75
2022-10-26T18:18:13.931Z,3.92
2022-10-26T18:20:15.760Z,5.63
2022-10-26T18:22:17.171Z,6.32
2022-10-26T18:24:20.341Z,5.50
2022-10-26T18:26:23.251Z,5.28
2022-10-26T18:28:26.730Z,4.78
2022-10-26T18:30:28.616Z,3.78
2022-10-26T18:32:30.176Z,5.32
2022-10-26T18:34:31.757Z,4.50
2022-10-26T18:36:33.529Z,5.07
2022-10-26T18:38:35.178Z,6.53
2022-10-26T18:40:36.569Z,4.70
2022-10-26T18:42:38.661Z,4.95
2022-10-26T18:44:40.033Z,4.07
2022-10-26T18:46:47.740Z,4.80
2022-10-26T18:48:50.634Z,4.97
2022-10-26T18:50:52.145Z,4.75
2022-10-26T18:52:54.772Z,3.42
2022-10-26T18:54:56.986Z,3.22
2022-10-26T18:56:58.578Z,2.65
2022-10-26T18:59:00.257Z,3.20
2022-10-26T19:01:08.991Z,3.05
2022-10-26T19:03:10.981Z,2.38
2022-10-26T19:05:12.527Z,3.28
2022-10-26T19:07:14.300Z,2.60
2022-10-26T19:09:16.574Z,3.15
2022-10-26T19:11:18.858Z,5.72
2022-10-26T19:13:20.252Z,29.10
2022-10-26T19:15:21.940Z,49.25
2022-10-26T19:17:23.622Z,58.22
2022-10-26T19:19:25.399Z,68.35
2022-10-26T19:21:28.698Z,69.50
2022-10-26T19:23:37.717Z,65.70
2022-10-26T19:25:39.118Z,59.95
2022-10-26T19:27:40.628Z,54.28
2022-10-26T19:29:42.133Z,41.08
2022-10-26T19:31:47.419Z,32.97
2022-10-26T19:33:48.891Z,24.88
2022-10-26T19:35:51.729Z,23.00
2022-10-26T19:37:53.434Z,20.88
2022-10-26T19:39:54.872Z,16.30
2022-10-26T19:41:56.774Z,16.77
2022-10-26T19:46:06.881Z,14.07
2022-10-26T19:48:08.291Z,14.32
2022-10-26T19:50:09.861Z,18.58
2022-10-26T19:52:11.473Z,17.50
2022-10-26T19:54:12.959Z,17.38
2022-10-26T19:56:14.588Z,17.17
2022-10-26T19:58:16.020Z,11.90
2022-10-26T20:00:18.116Z,12.40
2022-10-26T20:02:19.572Z,8.98
2022-10-26T20:04:21.147Z,10.15
2022-10-26T20:06:22.755Z,9.25
2022-10-26T20:08:25.565Z,9.23
2022-10-26T20:10:27.195Z,7.53
2022-10-26T20:12:28.900Z,7.25
2022-10-26T20:14:30.362Z,6.18
2022-10-26T20:16:33.545Z,5.72
2022-10-26T20:18:35.225Z,16.05
2022-10-26T20:20:37.970Z,21.73
2022-10-26T20:22:39.362Z,15.80
2022-10-26T20:24:40.851Z,16.48
2022-10-26T20:26:42.322Z,17.83
2022-10-26T20:28:44.746Z,16.50
2022-10-26T20:30:48.443Z,14.52
2022-10-26T20:34:59.214Z,13.25
2022-10-26T20:37:01.136Z,14.60
2022-10-26T20:39:03.658Z,14.00
2022-10-26T20:41:10.018Z,11.70
2022-10-26T20:43:16.520Z,12.55
2022-10-26T20:45:31.172Z,14.27
2022-10-26T20:49:35.890Z,14.70
2022-10-26T20:51:56.661Z,16.65
2022-10-26T20:54:08.035Z,12.20
2022-10-26T20:56:22.292Z,15.27
2022-10-26T20:58:23.734Z,14.00
2022-10-26T21:00:26.734Z,15.70
2022-10-26T21:02:29.292Z,20.27
2022-10-26T21:04:31.591Z,22.88
2022-10-26T21:06:40.034Z,25.60
2022-10-26T21:08:43.304Z,30.30
2022-10-26T21:10:45.192Z,35.63
2022-10-26T21:12:48.309Z,42.20
2022-10-26T21:14:50.597Z,37.83
2022-10-26T21:16:51.967Z,39.13
2022-10-26T21:18:53.725Z,35.08
2022-10-26T21:20:58.994Z,39.83
2022-10-26T21:23:02.532Z,32.03
2022-10-26T21:25:04.354Z,27.55
2022-10-26T21:27:05.906Z,27.02
2022-10-26T21:29:09.469Z,28.77
2022-10-26T21:33:14.715Z,17.58
2022-10-26T21:35:18.323Z,9.45
2022-10-26T21:37:20.233Z,8.57
2022-10-26T21:39:22.138Z,11.90
2022-10-26T21:41:30.003Z,9.77
2022-10-26T21:43:37.289Z,9.80
2022-10-26T21:45:39.090Z,10.60
2022-10-26T21:47:41.823Z,9.05
2022-10-26T21:49:43.516Z,9.13
2022-10-26T21:51:46.102Z,9.50
2022-10-26T21:53:47.953Z,10.20
2022-10-26T21:55:49.607Z,11.50
2022-10-26T21:57:52.455Z,11.68
2022-10-26T21:59:53.909Z,12.68
2022-10-26T22:01:55.540Z,11.55
2022-10-26T22:03:57.045Z,11.75
2022-10-26T22:05:58.458Z,10.88
2022-10-26T22:07:59.861Z,8.00
2022-10-26T22:10:10.610Z,6.15
2022-10-26T22:12:12.621Z,7.53
2022-10-26T22:14:15.487Z,7.75
2022-10-26T22:16:20.238Z,7.63
2022-10-26T22:18:21.708Z,7.10
2022-10-26T22:20:23.169Z,6.63
2022-10-26T22:22:24.610Z,7.68
2022-10-26T22:24:26.027Z,9.32
2022-10-26T22:26:27.500Z,9.48
2022-10-26T22:28:32.028Z,9.18
2022-10-26T22:30:36.782Z,7.05
2022-10-26T22:32:38.240Z,8.35
2022-10-26T22:34:39.715Z,5.68
2022-10-26T22:36:41.323Z,6.25
2022-10-26T22:38:42.814Z,5.97
2022-10-26T22:40:44.222Z,4.78
2022-10-26T22:42:45.974Z,3.97
2022-10-26T22:44:47.677Z,7.18
2022-10-26T22:46:49.181Z,12.13
2022-10-26T22:48:57.525Z,12.13
2022-10-26T22:50:58.978Z,17.65
2022-10-26T22:53:00.381Z,19.20
2022-10-26T22:55:02.077Z,21.65
2022-10-26T22:57:03.533Z,16.65
2022-10-26T22:59:05.662Z,9.98
2022-10-26T23:01:11.579Z,12.77
2022-10-26T23:03:13.190Z,14.23
2022-10-26T23:05:14.630Z,15.75
2022-10-26T23:07:16.017Z,13.27
2022-10-26T23:09:17.573Z,9.32
2022-10-26T23:11:20.583Z,12.75
2022-10-26T23:13:22.163Z,13.23
2022-10-26T23:15:24.778Z,11.40
2022-10-26T23:17:26.378Z,9.27
2022-10-26T23:19:27.762Z,7.53
2022-10-26T23:21:29.762Z,5.55
2022-10-26T23:23:31.527Z,5.93
2022-10-26T23:25:33.117Z,7.30
2022-10-26T23:27:34.595Z,8.48
2022-10-26T23:29:36.073Z,9.55
2022-10-26T23:31:37.578Z,6.80
2022-10-26T23:33:38.982Z,8.65
2022-10-26T23:35:40.870Z,5.75
2022-10-26T23:37:42.245Z,5.43
2022-10-26T23:39:45.504Z,4.35
2022-10-26T23:41:49.203Z,6.43
2022-10-26T23:43:51.284Z,7.10
2022-10-26T23:45:53.246Z,4.70
2022-10-26T23:47:56.937Z,5.30
2022-10-26T23:52:01.397Z,4.82
2022-10-26T23:54:04.921Z,2.97
2022-10-26T23:56:08.026Z,3.35
2022-10-26T23:58:09.860Z,2.25
